首页
METAR-TAF:

METAR-TAF

机场 :

弗林特, 密歇根州, 美国

纬度: 42-58-00N, 经度: 083-44-58W, 海拔: 238米

当前天气观测

该预报发布于35分钟前的18:53 UTC
风速14节,风向西转西北
温度 -3°C
湿度 50%
气压 1033 hPa
能見度: 16.1公里
天空无云

METAR: KFNT 191853Z 29014KT 10SM CLR M03/M12 A3049 RMK AO2 SLP337 T10331117

时间: 14:28 (19:28 UTC)

预报

该预报发布于1小时和57分钟前的17:31 UTC
预报有效从19日的 18点(UTC)到 20日的 18点(UTC)
风速12节,风向西转西北
能見度: 10公里
天空无云
从 19日的 2000点(UTC)
风速10节,风向西转西北
能見度: 10公里
多云层高于3500英尺
从 20日的 0100点(UTC)
风速7节,风向北转西北
能見度: 10公里
散云层高于10000英尺
多云层高于25000英尺
从 20日的 1300点(UTC)
风速5节,风向北转西北
能見度: 10公里
散云层高于3000英尺
多云层高于20000英尺

TAF: KFNT 191731Z 1918/2018 30012KT P6SM SKC FM192000 30010KT P6SM BKN035 FM200100 33007KT P6SM SCT100 BKN250 FM201300 33005KT P6SM SCT030 BKN200

超过4000个机场的气象观测和天气预报(METAR&TAF报告)。

可查询的气象台以黄色和红色小点在地图上表示。

将鼠标移到小点上方,可查看气象台名称。

然后点击查看天气观测和预报。

如需切换地图:点击带黑十字的绿色按钮放大地图;点击带横线的绿色按钮缩小地图;或者点击绿色箭头查看邻近地区的地图。


METAR-TAF: